sensor_id;sensor_type;location;lat;lon;timestamp;P1;durP1;ratioP1;P2;durP2;ratioP2
74042;SDS011;62384;53.600;10.040;2022-09-17T00:00:39;13.05;;;2.22;;
74042;SDS011;62384;53.600;10.040;2022-09-17T00:03:05;10.68;;;1.95;;
74042;SDS011;62384;53.600;10.040;2022-09-17T00:05:31;17.95;;;2.60;;
74042;SDS011;62384;53.600;10.040;2022-09-17T00:07:57;18.50;;;2.53;;
74042;SDS011;62384;53.600;10.040;2022-09-17T00:10:22;18.77;;;2.25;;
74042;SDS011;62384;53.600;10.040;2022-09-17T00:12:48;16.27;;;2.75;;
74042;SDS011;62384;53.600;10.040;2022-09-17T00:15:14;13.52;;;2.15;;
74042;SDS011;62384;53.600;10.040;2022-09-17T00:17:40;20.95;;;2.47;;
74042;SDS011;62384;53.600;10.040;2022-09-17T00:20:06;14.30;;;2.35;;
74042;SDS011;62384;53.600;10.040;2022-09-17T00:22:36;13.20;;;1.77;;
74042;SDS011;62384;53.600;10.040;2022-09-17T00:25:02;19.30;;;2.60;;
74042;SDS011;62384;53.600;10.040;2022-09-17T00:27:29;15.68;;;2.70;;
74042;SDS011;62384;53.600;10.040;2022-09-17T00:29:55;19.98;;;2.30;;
74042;SDS011;62384;53.600;10.040;2022-09-17T00:32:20;18.17;;;2.67;;
74042;SDS011;62384;53.600;10.040;2022-09-17T00:34:45;20.83;;;2.20;;
74042;SDS011;62384;53.600;10.040;2022-09-17T00:37:13;15.20;;;2.13;;
74042;SDS011;62384;53.600;10.040;2022-09-17T00:39:39;11.63;;;1.63;;
74042;SDS011;62384;53.600;10.040;2022-09-17T00:42:05;10.82;;;2.38;;
74042;SDS011;62384;53.600;10.040;2022-09-17T00:44:39;12.60;;;2.20;;
74042;SDS011;62384;53.600;10.040;2022-09-17T00:49:58;10.88;;;1.70;;
74042;SDS011;62384;53.600;10.040;2022-09-17T00:52:27;14.63;;;2.03;;
74042;SDS011;62384;53.600;10.040;2022-09-17T00:55:00;19.98;;;2.30;;
74042;SDS011;62384;53.600;10.040;2022-09-17T00:57:37;14.95;;;1.50;;
74042;SDS011;62384;53.600;10.040;2022-09-17T01:00:04;20.88;;;2.50;;
74042;SDS011;62384;53.600;10.040;2022-09-17T01:02:31;17.27;;;2.15;;
74042;SDS011;62384;53.600;10.040;2022-09-17T01:04:56;15.68;;;2.25;;
74042;SDS011;62384;53.600;10.040;2022-09-17T01:11:11;14.90;;;1.63;;
74042;SDS011;62384;53.600;10.040;2022-09-17T01:21:50;10.10;;;1.38;;
74042;SDS011;62384;53.600;10.040;2022-09-17T01:24:40;17.58;;;2.13;;
74042;SDS011;62384;53.600;10.040;2022-09-17T01:30:17;15.93;;;2.10;;
74042;SDS011;62384;53.600;10.040;2022-09-17T01:35:52;8.55;;;1.63;;
74042;SDS011;62384;53.600;10.040;2022-09-17T01:38:36;17.63;;;1.70;;
74042;SDS011;62384;53.600;10.040;2022-09-17T01:41:17;13.20;;;1.58;;
74042;SDS011;62384;53.600;10.040;2022-09-17T01:43:53;12.73;;;1.90;;
74042;SDS011;62384;53.600;10.040;2022-09-17T01:48:57;15.27;;;1.90;;
74042;SDS011;62384;53.600;10.040;2022-09-17T01:51:25;21.85;;;2.58;;
74042;SDS011;62384;53.600;10.040;2022-09-17T01:59:34;13.65;;;2.00;;
74042;SDS011;62384;53.600;10.040;2022-09-17T02:02:14;17.45;;;1.65;;
74042;SDS011;62384;53.600;10.040;2022-09-17T02:04:46;9.45;;;1.73;;
74042;SDS011;62384;53.600;10.040;2022-09-17T02:07:17;13.27;;;1.85;;
74042;SDS011;62384;53.600;10.040;2022-09-17T02:09:49;10.77;;;1.20;;
74042;SDS011;62384;53.600;10.040;2022-09-17T02:12:24;13.75;;;1.63;;
74042;SDS011;62384;53.600;10.040;2022-09-17T02:17:24;16.50;;;1.85;;
74042;SDS011;62384;53.600;10.040;2022-09-17T02:19:55;14.07;;;1.73;;
74042;SDS011;62384;53.600;10.040;2022-09-17T02:27:38;10.70;;;1.15;;
74042;SDS011;62384;53.600;10.040;2022-09-17T02:30:12;14.15;;;1.70;;
74042;SDS011;62384;53.600;10.040;2022-09-17T02:32:38;9.07;;;1.63;;
74042;SDS011;62384;53.600;10.040;2022-09-17T02:35:04;10.80;;;1.48;;
74042;SDS011;62384;53.600;10.040;2022-09-17T02:37:30;11.57;;;2.00;;
74042;SDS011;62384;53.600;10.040;2022-09-17T02:39:55;9.13;;;2.20;;
74042;SDS011;62384;53.600;10.040;2022-09-17T02:42:25;10.50;;;1.55;;
74042;SDS011;62384;53.600;10.040;2022-09-17T02:50:54;17.88;;;2.78;;
74042;SDS011;62384;53.600;10.040;2022-09-17T02:53:38;14.77;;;1.55;;
74042;SDS011;62384;53.600;10.040;2022-09-17T02:56:26;16.30;;;2.05;;
74042;SDS011;62384;53.600;10.040;2022-09-17T03:04:01;12.05;;;2.33;;
74042;SDS011;62384;53.600;10.040;2022-09-17T03:06:30;19.52;;;2.55;;
74042;SDS011;62384;53.600;10.040;2022-09-17T03:08:55;8.70;;;1.75;;
74042;SDS011;62384;53.600;10.040;2022-09-17T03:11:21;9.40;;;2.05;;
74042;SDS011;62384;53.600;10.040;2022-09-17T03:13:46;13.25;;;1.60;;
74042;SDS011;62384;53.600;10.040;2022-09-17T03:16:12;13.45;;;1.70;;
74042;SDS011;62384;53.600;10.040;2022-09-17T03:18:37;11.20;;;1.30;;
74042;SDS011;62384;53.600;10.040;2022-09-17T03:21:02;12.80;;;2.60;;
74042;SDS011;62384;53.600;10.040;2022-09-17T03:23:27;12.32;;;1.90;;
74042;SDS011;62384;53.600;10.040;2022-09-17T03:25:53;9.93;;;1.65;;
74042;SDS011;62384;53.600;10.040;2022-09-17T03:28:19;14.55;;;1.40;;
74042;SDS011;62384;53.600;10.040;2022-09-17T03:30:44;7.65;;;1.58;;
74042;SDS011;62384;53.600;10.040;2022-09-17T03:33:10;12.50;;;1.58;;
74042;SDS011;62384;53.600;10.040;2022-09-17T03:35:35;18.00;;;2.58;;
74042;SDS011;62384;53.600;10.040;2022-09-17T03:38:01;16.00;;;1.48;;
74042;SDS011;62384;53.600;10.040;2022-09-17T03:40:26;13.40;;;1.05;;
74042;SDS011;62384;53.600;10.040;2022-09-17T03:42:51;12.50;;;1.63;;
74042;SDS011;62384;53.600;10.040;2022-09-17T03:45:17;11.70;;;1.48;;
74042;SDS011;62384;53.600;10.040;2022-09-17T03:47:42;12.45;;;1.58;;
74042;SDS011;62384;53.600;10.040;2022-09-17T03:50:07;10.88;;;1.23;;
74042;SDS011;62384;53.600;10.040;2022-09-17T03:52:33;9.93;;;1.25;;
74042;SDS011;62384;53.600;10.040;2022-09-17T03:54:59;6.70;;;1.40;;
74042;SDS011;62384;53.600;10.040;2022-09-17T03:57:24;11.60;;;2.03;;
74042;SDS011;62384;53.600;10.040;2022-09-17T03:59:49;11.55;;;1.35;;
74042;SDS011;62384;53.600;10.040;2022-09-17T04:02:15;6.88;;;1.13;;
74042;SDS011;62384;53.600;10.040;2022-09-17T04:04:40;8.55;;;1.25;;
74042;SDS011;62384;53.600;10.040;2022-09-17T04:07:05;12.45;;;1.27;;
74042;SDS011;62384;53.600;10.040;2022-09-17T04:09:31;9.10;;;1.38;;
74042;SDS011;62384;53.600;10.040;2022-09-17T04:11:56;6.93;;;1.42;;
74042;SDS011;62384;53.600;10.040;2022-09-17T04:14:21;6.40;;;0.80;;
74042;SDS011;62384;53.600;10.040;2022-09-17T04:16:47;8.73;;;1.08;;
74042;SDS011;62384;53.600;10.040;2022-09-17T04:19:12;10.68;;;1.60;;
74042;SDS011;62384;53.600;10.040;2022-09-17T04:21:37;9.40;;;1.33;;
74042;SDS011;62384;53.600;10.040;2022-09-17T04:24:03;7.80;;;1.27;;
74042;SDS011;62384;53.600;10.040;2022-09-17T04:26:28;7.20;;;1.20;;
74042;SDS011;62384;53.600;10.040;2022-09-17T04:28:53;5.50;;;0.90;;
74042;SDS011;62384;53.600;10.040;2022-09-17T04:31:18;5.80;;;1.63;;
74042;SDS011;62384;53.600;10.040;2022-09-17T04:33:44;9.32;;;1.50;;
74042;SDS011;62384;53.600;10.040;2022-09-17T04:36:09;7.28;;;1.38;;
74042;SDS011;62384;53.600;10.040;2022-09-17T04:38:35;11.15;;;1.80;;
74042;SDS011;62384;53.600;10.040;2022-09-17T04:41:00;9.85;;;1.95;;
74042;SDS011;62384;53.600;10.040;2022-09-17T04:43:25;8.18;;;2.10;;
74042;SDS011;62384;53.600;10.040;2022-09-17T04:45:50;11.55;;;1.65;;
74042;SDS011;62384;53.600;10.040;2022-09-17T04:48:16;8.15;;;1.08;;
74042;SDS011;62384;53.600;10.040;2022-09-17T04:50:41;9.60;;;1.58;;
74042;SDS011;62384;53.600;10.040;2022-09-17T04:53:07;15.07;;;1.75;;
74042;SDS011;62384;53.600;10.040;2022-09-17T04:55:32;12.73;;;1.42;;
74042;SDS011;62384;53.600;10.040;2022-09-17T04:57:58;12.13;;;1.20;;
74042;SDS011;62384;53.600;10.040;2022-09-17T05:00:23;11.43;;;1.73;;
74042;SDS011;62384;53.600;10.040;2022-09-17T05:02:51;15.40;;;1.40;;
74042;SDS011;62384;53.600;10.040;2022-09-17T05:05:18;12.18;;;1.73;;
74042;SDS011;62384;53.600;10.040;2022-09-17T05:07:44;10.93;;;1.50;;
74042;SDS011;62384;53.600;10.040;2022-09-17T05:10:10;6.45;;;1.77;;
74042;SDS011;62384;53.600;10.040;2022-09-17T05:12:36;7.40;;;1.35;;
74042;SDS011;62384;53.600;10.040;2022-09-17T05:15:02;12.85;;;1.48;;
74042;SDS011;62384;53.600;10.040;2022-09-17T05:17:29;10.70;;;1.75;;
74042;SDS011;62384;53.600;10.040;2022-09-17T05:19:54;9.20;;;1.00;;
74042;SDS011;62384;53.600;10.040;2022-09-17T05:22:20;7.15;;;1.33;;
74042;SDS011;62384;53.600;10.040;2022-09-17T05:24:45;10.50;;;1.20;;
74042;SDS011;62384;53.600;10.040;2022-09-17T05:27:11;11.05;;;1.33;;
74042;SDS011;62384;53.600;10.040;2022-09-17T05:29:36;15.30;;;1.63;;
74042;SDS011;62384;53.600;10.040;2022-09-17T05:32:02;8.98;;;1.50;;
74042;SDS011;62384;53.600;10.040;2022-09-17T05:34:28;10.90;;;1.45;;
74042;SDS011;62384;53.600;10.040;2022-09-17T05:36:55;11.50;;;2.15;;
74042;SDS011;62384;53.600;10.040;2022-09-17T05:39:20;11.45;;;1.42;;
74042;SDS011;62384;53.600;10.040;2022-09-17T05:41:55;11.25;;;1.38;;
74042;SDS011;62384;53.600;10.040;2022-09-17T05:44:20;11.82;;;2.03;;
74042;SDS011;62384;53.600;10.040;2022-09-17T05:46:46;10.90;;;1.38;;
74042;SDS011;62384;53.600;10.040;2022-09-17T05:49:12;7.10;;;1.08;;
74042;SDS011;62384;53.600;10.040;2022-09-17T05:51:39;6.68;;;1.27;;
74042;SDS011;62384;53.600;10.040;2022-09-17T05:54:04;9.30;;;1.27;;
74042;SDS011;62384;53.600;10.040;2022-09-17T05:56:30;11.25;;;1.70;;
74042;SDS011;62384;53.600;10.040;2022-09-17T05:58:55;10.85;;;1.77;;
74042;SDS011;62384;53.600;10.040;2022-09-17T06:01:21;13.88;;;1.30;;
74042;SDS011;62384;53.600;10.040;2022-09-17T06:03:47;9.25;;;2.17;;
74042;SDS011;62384;53.600;10.040;2022-09-17T06:06:13;11.90;;;2.20;;
74042;SDS011;62384;53.600;10.040;2022-09-17T06:08:39;12.70;;;1.63;;
74042;SDS011;62384;53.600;10.040;2022-09-17T06:11:05;6.75;;;1.40;;
74042;SDS011;62384;53.600;10.040;2022-09-17T06:13:32;7.88;;;1.33;;
74042;SDS011;62384;53.600;10.040;2022-09-17T06:15:58;10.70;;;1.60;;
74042;SDS011;62384;53.600;10.040;2022-09-17T06:18:24;14.43;;;1.48;;
74042;SDS011;62384;53.600;10.040;2022-09-17T06:20:51;11.93;;;1.50;;
74042;SDS011;62384;53.600;10.040;2022-09-17T06:23:18;13.80;;;2.35;;
74042;SDS011;62384;53.600;10.040;2022-09-17T06:25:48;12.07;;;1.60;;
74042;SDS011;62384;53.600;10.040;2022-09-17T06:28:17;10.90;;;1.10;;
74042;SDS011;62384;53.600;10.040;2022-09-17T06:30:42;9.05;;;1.05;;
74042;SDS011;62384;53.600;10.040;2022-09-17T06:33:07;10.68;;;1.35;;
74042;SDS011;62384;53.600;10.040;2022-09-17T06:35:33;12.52;;;1.55;;
74042;SDS011;62384;53.600;10.040;2022-09-17T06:37:58;10.77;;;1.63;;
74042;SDS011;62384;53.600;10.040;2022-09-17T06:40:23;14.13;;;1.88;;
74042;SDS011;62384;53.600;10.040;2022-09-17T06:42:55;13.10;;;1.70;;
74042;SDS011;62384;53.600;10.040;2022-09-17T06:45:21;6.82;;;1.73;;
74042;SDS011;62384;53.600;10.040;2022-09-17T06:47:46;13.27;;;1.10;;
74042;SDS011;62384;53.600;10.040;2022-09-17T06:50:11;5.68;;;0.88;;
74042;SDS011;62384;53.600;10.040;2022-09-17T06:52:36;5.05;;;0.93;;
74042;SDS011;62384;53.600;10.040;2022-09-17T06:55:02;12.95;;;1.15;;
74042;SDS011;62384;53.600;10.040;2022-09-17T06:57:28;7.43;;;1.30;;
74042;SDS011;62384;53.600;10.040;2022-09-17T06:59:53;8.02;;;1.52;;
74042;SDS011;62384;53.600;10.040;2022-09-17T07:02:18;8.63;;;1.08;;
74042;SDS011;62384;53.600;10.040;2022-09-17T07:04:44;5.07;;;1.35;;
74042;SDS011;62384;53.600;10.040;2022-09-17T07:07:09;7.30;;;1.00;;
74042;SDS011;62384;53.600;10.040;2022-09-17T07:09:35;6.22;;;1.42;;
74042;SDS011;62384;53.600;10.040;2022-09-17T07:12:00;14.52;;;1.67;;
74042;SDS011;62384;53.600;10.040;2022-09-17T07:14:25;9.20;;;0.93;;
74042;SDS011;62384;53.600;10.040;2022-09-17T07:16:51;8.02;;;0.90;;
74042;SDS011;62384;53.600;10.040;2022-09-17T07:19:16;3.25;;;0.50;;
74042;SDS011;62384;53.600;10.040;2022-09-17T07:21:42;4.57;;;0.43;;
74042;SDS011;62384;53.600;10.040;2022-09-17T07:24:07;6.20;;;1.20;;
74042;SDS011;62384;53.600;10.040;2022-09-17T07:26:32;5.05;;;0.50;;
74042;SDS011;62384;53.600;10.040;2022-09-17T07:28:57;7.15;;;1.73;;
74042;SDS011;62384;53.600;10.040;2022-09-17T07:34:45;7.15;;;0.82;;
74042;SDS011;62384;53.600;10.040;2022-09-17T07:37:10;5.72;;;0.75;;
74042;SDS011;62384;53.600;10.040;2022-09-17T07:39:36;4.88;;;1.38;;
74042;SDS011;62384;53.600;10.040;2022-09-17T07:42:02;2.38;;;0.38;;
74042;SDS011;62384;53.600;10.040;2022-09-17T07:44:28;2.72;;;0.50;;
74042;SDS011;62384;53.600;10.040;2022-09-17T07:46:54;10.75;;;1.05;;
74042;SDS011;62384;53.600;10.040;2022-09-17T07:49:19;6.90;;;1.70;;
74042;SDS011;62384;53.600;10.040;2022-09-17T07:51:45;5.45;;;0.57;;
74042;SDS011;62384;53.600;10.040;2022-09-17T07:54:10;6.35;;;1.02;;
74042;SDS011;62384;53.600;10.040;2022-09-17T07:56:36;4.07;;;0.70;;
74042;SDS011;62384;53.600;10.040;2022-09-17T07:59:01;6.45;;;0.88;;
74042;SDS011;62384;53.600;10.040;2022-09-17T08:01:28;6.05;;;0.65;;
74042;SDS011;62384;53.600;10.040;2022-09-17T08:03:53;1.13;;;0.40;;
74042;SDS011;62384;53.600;10.040;2022-09-17T08:06:20;5.47;;;0.70;;
74042;SDS011;62384;53.600;10.040;2022-09-17T08:08:47;9.25;;;0.93;;
74042;SDS011;62384;53.600;10.040;2022-09-17T08:11:14;6.38;;;0.85;;
74042;SDS011;62384;53.600;10.040;2022-09-17T08:13:42;1.70;;;0.50;;
74042;SDS011;62384;53.600;10.040;2022-09-17T08:16:09;3.90;;;1.05;;
74042;SDS011;62384;53.600;10.040;2022-09-17T08:18:39;8.57;;;0.93;;
74042;SDS011;62384;53.600;10.040;2022-09-17T08:21:06;8.77;;;0.60;;
74042;SDS011;62384;53.600;10.040;2022-09-17T08:23:34;4.63;;;0.88;;
74042;SDS011;62384;53.600;10.040;2022-09-17T08:26:00;5.60;;;0.80;;
74042;SDS011;62384;53.600;10.040;2022-09-17T08:28:27;10.50;;;1.63;;
74042;SDS011;62384;53.600;10.040;2022-09-17T08:30:58;3.13;;;0.60;;
74042;SDS011;62384;53.600;10.040;2022-09-17T08:33:32;5.47;;;0.60;;
74042;SDS011;62384;53.600;10.040;2022-09-17T08:35:59;4.13;;;0.88;;
74042;SDS011;62384;53.600;10.040;2022-09-17T08:38:26;11.15;;;0.93;;
74042;SDS011;62384;53.600;10.040;2022-09-17T08:43:26;6.18;;;0.77;;
74042;SDS011;62384;53.600;10.040;2022-09-17T08:45:54;7.22;;;1.30;;
74042;SDS011;62384;53.600;10.040;2022-09-17T08:48:19;4.10;;;0.98;;
74042;SDS011;62384;53.600;10.040;2022-09-17T08:50:45;5.95;;;0.70;;
74042;SDS011;62384;53.600;10.040;2022-09-17T08:56:12;5.78;;;0.70;;
74042;SDS011;62384;53.600;10.040;2022-09-17T08:58:56;6.65;;;0.70;;
74042;SDS011;62384;53.600;10.040;2022-09-17T09:07:19;4.65;;;0.30;;
74042;SDS011;62384;53.600;10.040;2022-09-17T09:09:53;2.95;;;0.47;;
74042;SDS011;62384;53.600;10.040;2022-09-17T09:12:44;2.75;;;0.50;;
74042;SDS011;62384;53.600;10.040;2022-09-17T09:18:30;5.68;;;0.50;;
74042;SDS011;62384;53.600;10.040;2022-09-17T09:26:40;2.90;;;0.65;;
74042;SDS011;62384;53.600;10.040;2022-09-17T09:29:21;1.88;;;0.30;;
74042;SDS011;62384;53.600;10.040;2022-09-17T09:32:08;0.73;;;0.22;;
74042;SDS011;62384;53.600;10.040;2022-09-17T09:35:00;2.58;;;0.20;;
74042;SDS011;62384;53.600;10.040;2022-09-17T09:37:36;3.55;;;0.30;;
74042;SDS011;62384;53.600;10.040;2022-09-17T09:40:22;4.00;;;0.10;;
74042;SDS011;62384;53.600;10.040;2022-09-17T09:42:53;1.25;;;0.47;;
74042;SDS011;62384;53.600;10.040;2022-09-17T09:45:27;5.47;;;0.35;;
74042;SDS011;62384;53.600;10.040;2022-09-17T09:49:09;1.75;;;0.20;;
74042;SDS011;62384;53.600;10.040;2022-09-17T09:51:09;4.38;;;0.30;;
74042;SDS011;62384;53.600;10.040;2022-09-17T09:56:26;0.50;;;0.20;;
74042;SDS011;62384;53.600;10.040;2022-09-17T09:58:58;1.98;;;0.28;;
74042;SDS011;62384;53.600;10.040;2022-09-17T10:01:24;1.45;;;0.20;;
74042;SDS011;62384;53.600;10.040;2022-09-17T10:03:52;1.55;;;0.40;;
74042;SDS011;62384;53.600;10.040;2022-09-17T10:06:19;2.58;;;0.20;;
74042;SDS011;62384;53.600;10.040;2022-09-17T10:11:21;2.38;;;0.10;;
74042;SDS011;62384;53.600;10.040;2022-09-17T10:13:50;0.80;;;0.30;;
74042;SDS011;62384;53.600;10.040;2022-09-17T10:18:44;2.88;;;1.55;;
74042;SDS011;62384;53.600;10.040;2022-09-17T10:21:29;0.80;;;0.20;;
74042;SDS011;62384;53.600;10.040;2022-09-17T10:23:59;1.58;;;0.20;;
74042;SDS011;62384;53.600;10.040;2022-09-17T10:26:29;3.80;;;0.22;;
74042;SDS011;62384;53.600;10.040;2022-09-17T10:28:57;1.63;;;0.30;;
74042;SDS011;62384;53.600;10.040;2022-09-17T10:31:44;2.70;;;0.40;;
74042;SDS011;62384;53.600;10.040;2022-09-17T10:34:18;3.10;;;0.50;;
74042;SDS011;62384;53.600;10.040;2022-09-17T10:36:45;3.70;;;0.55;;
74042;SDS011;62384;53.600;10.040;2022-09-17T10:41:53;0.68;;;0.20;;
74042;SDS011;62384;53.600;10.040;2022-09-17T10:44:20;4.80;;;0.50;;
74042;SDS011;62384;53.600;10.040;2022-09-17T10:46:46;5.90;;;0.73;;
74042;SDS011;62384;53.600;10.040;2022-09-17T10:52:23;1.83;;;0.43;;
74042;SDS011;62384;53.600;10.040;2022-09-17T10:55:03;1.02;;;0.30;;
74042;SDS011;62384;53.600;10.040;2022-09-17T11:09:50;1.45;;;0.30;;
74042;SDS011;62384;53.600;10.040;2022-09-17T11:24:16;0.47;;;0.20;;
74042;SDS011;62384;53.600;10.040;2022-09-17T11:32:24;2.42;;;0.40;;
74042;SDS011;62384;53.600;10.040;2022-09-17T11:38:01;3.40;;;0.47;;
74042;SDS011;62384;53.600;10.040;2022-09-17T11:41:03;9.60;;;0.88;;
74042;SDS011;62384;53.600;10.040;2022-09-17T11:43:36;1.17;;;0.52;;
74042;SDS011;62384;53.600;10.040;2022-09-17T11:46:13;4.88;;;0.90;;
74042;SDS011;62384;53.600;10.040;2022-09-17T11:51:20;3.95;;;1.17;;
74042;SDS011;62384;53.600;10.040;2022-09-17T11:53:55;1.77;;;0.50;;
74042;SDS011;62384;53.600;10.040;2022-09-17T11:56:45;2.78;;;0.45;;
74042;SDS011;62384;53.600;10.040;2022-09-17T12:01:57;4.00;;;0.55;;
74042;SDS011;62384;53.600;10.040;2022-09-17T12:04:29;3.17;;;0.70;;
74042;SDS011;62384;53.600;10.040;2022-09-17T12:09:55;2.67;;;0.60;;
74042;SDS011;62384;53.600;10.040;2022-09-17T12:12:26;2.00;;;0.68;;
74042;SDS011;62384;53.600;10.040;2022-09-17T12:15:02;4.50;;;1.02;;
74042;SDS011;62384;53.600;10.040;2022-09-17T12:17:36;3.13;;;0.73;;
74042;SDS011;62384;53.600;10.040;2022-09-17T12:20:07;6.35;;;1.30;;
74042;SDS011;62384;53.600;10.040;2022-09-17T12:22:44;8.43;;;1.40;;
74042;SDS011;62384;53.600;10.040;2022-09-17T12:25:12;6.93;;;0.82;;
74042;SDS011;62384;53.600;10.040;2022-09-17T12:30:21;1.67;;;0.60;;
74042;SDS011;62384;53.600;10.040;2022-09-17T12:33:06;1.63;;;0.60;;
74042;SDS011;62384;53.600;10.040;2022-09-17T12:36:01;4.35;;;0.95;;
74042;SDS011;62384;53.600;10.040;2022-09-17T12:41:10;6.15;;;0.70;;
74042;SDS011;62384;53.600;10.040;2022-09-17T12:43:55;5.95;;;1.05;;
74042;SDS011;62384;53.600;10.040;2022-09-17T12:46:57;3.05;;;0.85;;
74042;SDS011;62384;53.600;10.040;2022-09-17T12:52:55;4.22;;;0.90;;
74042;SDS011;62384;53.600;10.040;2022-09-17T13:01:17;4.72;;;0.98;;
74042;SDS011;62384;53.600;10.040;2022-09-17T13:04:00;2.63;;;0.70;;
74042;SDS011;62384;53.600;10.040;2022-09-17T13:06:42;3.70;;;0.65;;
74042;SDS011;62384;53.600;10.040;2022-09-17T13:09:44;3.28;;;0.70;;
74042;SDS011;62384;53.600;10.040;2022-09-17T13:17:52;3.83;;;0.90;;
74042;SDS011;62384;53.600;10.040;2022-09-17T13:20:32;3.60;;;0.95;;
74042;SDS011;62384;53.600;10.040;2022-09-17T13:23:02;4.32;;;0.80;;
74042;SDS011;62384;53.600;10.040;2022-09-17T13:25:27;4.57;;;0.90;;
74042;SDS011;62384;53.600;10.040;2022-09-17T13:28:15;6.38;;;1.10;;
74042;SDS011;62384;53.600;10.040;2022-09-17T13:30:58;7.45;;;1.20;;
74042;SDS011;62384;53.600;10.040;2022-09-17T13:36:33;11.68;;;1.23;;
74042;SDS011;62384;53.600;10.040;2022-09-17T13:39:02;2.97;;;0.80;;
74042;SDS011;62384;53.600;10.040;2022-09-17T13:41:28;3.95;;;1.05;;
74042;SDS011;62384;53.600;10.040;2022-09-17T13:43:56;4.20;;;0.60;;
74042;SDS011;62384;53.600;10.040;2022-09-17T13:46:21;5.32;;;0.73;;
74042;SDS011;62384;53.600;10.040;2022-09-17T13:48:49;4.80;;;0.68;;
74042;SDS011;62384;53.600;10.040;2022-09-17T13:53:54;5.15;;;0.88;;
74042;SDS011;62384;53.600;10.040;2022-09-17T13:56:27;3.92;;;0.50;;
74042;SDS011;62384;53.600;10.040;2022-09-17T13:59:15;5.00;;;0.60;;
74042;SDS011;62384;53.600;10.040;2022-09-17T14:20:53;3.85;;;0.20;;
74042;SDS011;62384;53.600;10.040;2022-09-17T14:23:29;4.22;;;0.77;;
74042;SDS011;62384;53.600;10.040;2022-09-17T14:25:58;3.88;;;1.13;;
74042;SDS011;62384;53.600;10.040;2022-09-17T14:28:40;2.90;;;0.70;;
74042;SDS011;62384;53.600;10.040;2022-09-17T14:31:17;3.15;;;0.85;;
74042;SDS011;62384;53.600;10.040;2022-09-17T14:33:44;1.57;;;0.40;;
74042;SDS011;62384;53.600;10.040;2022-09-17T14:36:14;1.30;;;0.40;;
74042;SDS011;62384;53.600;10.040;2022-09-17T14:41:17;2.53;;;0.43;;
74042;SDS011;62384;53.600;10.040;2022-09-17T14:43:52;1.58;;;0.20;;
74042;SDS011;62384;53.600;10.040;2022-09-17T14:46:26;0.75;;;0.43;;
74042;SDS011;62384;53.600;10.040;2022-09-17T14:49:11;2.13;;;0.50;;
74042;SDS011;62384;53.600;10.040;2022-09-17T14:51:57;3.88;;;0.88;;
74042;SDS011;62384;53.600;10.040;2022-09-17T14:54:27;3.63;;;0.47;;
74042;SDS011;62384;53.600;10.040;2022-09-17T15:02:02;2.10;;;0.40;;
74042;SDS011;62384;53.600;10.040;2022-09-17T15:04:27;3.63;;;0.50;;
74042;SDS011;62384;53.600;10.040;2022-09-17T15:07:06;5.05;;;0.65;;
74042;SDS011;62384;53.600;10.040;2022-09-17T15:09:33;1.65;;;0.70;;
74042;SDS011;62384;53.600;10.040;2022-09-17T15:11:59;1.92;;;0.45;;
74042;SDS011;62384;53.600;10.040;2022-09-17T15:14:29;5.20;;;0.70;;
74042;SDS011;62384;53.600;10.040;2022-09-17T15:16:57;5.25;;;0.55;;
74042;SDS011;62384;53.600;10.040;2022-09-17T15:19:30;4.25;;;0.70;;
74042;SDS011;62384;53.600;10.040;2022-09-17T15:22:42;1.38;;;0.82;;
74042;SDS011;62384;53.600;10.040;2022-09-17T15:25:02;1.60;;;0.43;;
74042;SDS011;62384;53.600;10.040;2022-09-17T15:27:36;2.67;;;0.70;;
74042;SDS011;62384;53.600;10.040;2022-09-17T15:32:31;2.65;;;1.27;;
74042;SDS011;62384;53.600;10.040;2022-09-17T15:37:44;3.05;;;0.30;;
74042;SDS011;62384;53.600;10.040;2022-09-17T15:40:12;2.53;;;0.52;;
74042;SDS011;62384;53.600;10.040;2022-09-17T15:43:00;2.35;;;0.55;;
74042;SDS011;62384;53.600;10.040;2022-09-17T15:45:37;4.25;;;0.57;;
74042;SDS011;62384;53.600;10.040;2022-09-17T15:48:04;2.55;;;0.60;;
74042;SDS011;62384;53.600;10.040;2022-09-17T15:50:31;3.40;;;0.30;;
74042;SDS011;62384;53.600;10.040;2022-09-17T15:53:13;3.70;;;0.70;;
74042;SDS011;62384;53.600;10.040;2022-09-17T15:55:56;3.42;;;0.60;;
74042;SDS011;62384;53.600;10.040;2022-09-17T15:58:30;1.40;;;0.47;;
74042;SDS011;62384;53.600;10.040;2022-09-17T16:08:41;1.23;;;0.40;;
74042;SDS011;62384;53.600;10.040;2022-09-17T16:11:07;2.55;;;0.30;;
74042;SDS011;62384;53.600;10.040;2022-09-17T16:13:33;4.43;;;0.50;;
74042;SDS011;62384;53.600;10.040;2022-09-17T16:15:58;2.30;;;0.40;;
74042;SDS011;62384;53.600;10.040;2022-09-17T16:18:24;3.47;;;0.63;;
74042;SDS011;62384;53.600;10.040;2022-09-17T16:20:50;0.75;;;0.40;;
74042;SDS011;62384;53.600;10.040;2022-09-17T16:23:15;4.03;;;0.50;;
74042;SDS011;62384;53.600;10.040;2022-09-17T16:25:40;2.58;;;0.50;;
74042;SDS011;62384;53.600;10.040;2022-09-17T16:28:08;1.63;;;0.38;;
74042;SDS011;62384;53.600;10.040;2022-09-17T16:30:36;2.75;;;0.95;;
74042;SDS011;62384;53.600;10.040;2022-09-17T16:33:05;4.07;;;0.57;;
74042;SDS011;62384;53.600;10.040;2022-09-17T16:35:30;2.25;;;0.30;;
74042;SDS011;62384;53.600;10.040;2022-09-17T16:37:56;1.70;;;0.40;;
74042;SDS011;62384;53.600;10.040;2022-09-17T16:40:22;3.28;;;1.00;;
74042;SDS011;62384;53.600;10.040;2022-09-17T16:42:53;4.03;;;0.30;;
74042;SDS011;62384;53.600;10.040;2022-09-17T16:45:19;4.63;;;0.35;;
74042;SDS011;62384;53.600;10.040;2022-09-17T16:47:44;5.75;;;0.68;;
74042;SDS011;62384;53.600;10.040;2022-09-17T16:50:14;2.63;;;0.50;;
74042;SDS011;62384;53.600;10.040;2022-09-17T16:52:41;5.22;;;0.52;;
74042;SDS011;62384;53.600;10.040;2022-09-17T16:55:06;1.15;;;0.40;;
74042;SDS011;62384;53.600;10.040;2022-09-17T16:57:33;0.52;;;0.40;;
74042;SDS011;62384;53.600;10.040;2022-09-17T16:59:59;1.25;;;0.32;;
74042;SDS011;62384;53.600;10.040;2022-09-17T17:02:24;2.03;;;0.40;;
74042;SDS011;62384;53.600;10.040;2022-09-17T17:04:50;1.20;;;0.45;;
74042;SDS011;62384;53.600;10.040;2022-09-17T17:07:15;2.08;;;0.45;;
74042;SDS011;62384;53.600;10.040;2022-09-17T17:09:40;3.10;;;1.02;;
74042;SDS011;62384;53.600;10.040;2022-09-17T17:12:06;4.85;;;1.35;;
74042;SDS011;62384;53.600;10.040;2022-09-17T17:14:31;0.95;;;0.32;;
74042;SDS011;62384;53.600;10.040;2022-09-17T17:16:59;2.63;;;0.68;;
74042;SDS011;62384;53.600;10.040;2022-09-17T17:19:24;2.60;;;0.70;;
74042;SDS011;62384;53.600;10.040;2022-09-17T17:21:50;4.18;;;0.43;;
74042;SDS011;62384;53.600;10.040;2022-09-17T17:24:15;1.58;;;0.50;;
74042;SDS011;62384;53.600;10.040;2022-09-17T17:26:41;2.65;;;1.10;;
74042;SDS011;62384;53.600;10.040;2022-09-17T17:29:06;3.78;;;0.85;;
74042;SDS011;62384;53.600;10.040;2022-09-17T17:31:32;3.30;;;0.70;;
74042;SDS011;62384;53.600;10.040;2022-09-17T17:33:58;2.53;;;1.27;;
74042;SDS011;62384;53.600;10.040;2022-09-17T17:36:23;2.42;;;0.55;;
74042;SDS011;62384;53.600;10.040;2022-09-17T17:38:48;1.30;;;0.50;;
74042;SDS011;62384;53.600;10.040;2022-09-17T17:41:14;3.80;;;0.80;;
74042;SDS011;62384;53.600;10.040;2022-09-17T17:43:40;5.63;;;0.70;;
74042;SDS011;62384;53.600;10.040;2022-09-17T17:46:06;0.82;;;0.40;;
74042;SDS011;62384;53.600;10.040;2022-09-17T17:48:33;5.95;;;0.90;;
74042;SDS011;62384;53.600;10.040;2022-09-17T17:51:03;9.45;;;0.93;;
74042;SDS011;62384;53.600;10.040;2022-09-17T17:53:30;3.78;;;0.63;;
74042;SDS011;62384;53.600;10.040;2022-09-17T17:55:57;3.72;;;0.90;;